CRG3 weather

Bouthillier Airport
Carignan, Quebec, Canada

Public forecast

Using degrees Celsius for public forecast. Weather courtesy of forecast.io.

METAR (pilot weather report)

Closest report is MontrĂ©al / Saint-Hubert Airport, 5.4 nm (10.0 km) WNW. Retrieved 2019/07/20 04:00 UTC (11 minutes ago):

CYHU 200400Z AUTO 25017G23KT 9SM CLR 27/23 A2969 RMK SLP056 DENSITY ALT 1700FT

TAF (pilot weather forecast)

Forecast is more than 12 hours old.

Closest forecast is MontrĂ©al / Saint-Hubert Airport, 5.4 nm (10.0 km) WNW. Retrieved 2019/07/19 00:42 UTC (1 day ago):

TAF CYHU 192338Z 2000/2024 25012G22KT P6SM FEW040 SCT140 TEMPO 2001/2007 BKN040 FM200800 25010KT P6SM SCT020 TEMPO 2010/2013 BKN020 FM201300 23010G20KT P6SM FEW020 BKN040 FM201600 23012G22KT P6SM -SHRA BKN040 FM201900 27015G25KT P6SM BKN030 PROB30 2019/2023 2SM TSRA BR SCT008 BKN020CB FM202300 27010G20KT P6SM -DZ BKN008 OVC015 RMK FCST BASED ON AUTO OBS. NXT FCST BY 200600Z